Tiempo atmosférico en la estación meteorológica de Villena, Alacant/Alicante (486 m.)



Fecha
DESCASC
Temp. máxima en grados centígrados (hora)
DESCASC
Temp. mínima en grados centígrados (hora)
DESCASC
Temp. media en grados centígrados
DESCASC
Racha de viento máxima en m/sg (hora)
DESCASC
Velocidad máxima media en intervalos de 10 minutos(hora)
DESCASC
Precipitaciones diarias en mm
DESCASC
Precipitaciones de 00:00 a 06:00 en mm
DESCASC
Precipitaciones de 06:00 a 12:00 en mm
DESCASC
Precipitaciones de 12:00 a 18:00 en mm
DESCASC
Precipitaciones de 18:00 a 24:00 en mm
DESCASC
24-05-2020 26.5 (14:50) 15.6 (06:40) 21.1 9.17 (05:30) 5.56 (05:30) 0 0 0 0 0
23-05-2020 30.2 (14:50) 10.1 (07:10) 20.2 8.89 (16:10) 6.39 (16:20) 0 0 0 0 0
22-05-2020 31.7 (14:00) 10.6 (06:50) 21.2 9.44 (17:20) 6.67 (17:20) 0 0 0 0 0
21-05-2020 29.7 (14:30) 11.3 (00:00) 20.5 8.33 (17:00) 5.83 (17:20) 0 0 0 0 0
20-05-2020 30.9 (15:00) 10.2 (00:00) 20.5 8.33 (16:10) 5.28 (19:00) 0.2 0.2 0 0 0
19-05-2020 30.3 (16:10) 8.8 (00:00) 19.5 7.5 (16:00) 5.28 (15:40) 0.2 0 0.2 0 0
18-05-2020 27.2 (17:00) 9.1 (00:00) 18.2 7.78 (20:00) 5.28 (19:10) 0.8 0.2 0.2 0.2 0.2
17-05-2020 21.9 (15:00) 10.5 (00:00) 16.2 8.89 (15:30) 6.39 (15:50) 0.8 0.2 0.2 0.2 0.2
16-05-2020 18 (17:20) 10.6 (00:00) 14.3 9.72 (11:50) 6.39 (11:50) 1.2 0.4 0.2 0.4 0.2
15-05-2020 17 (12:30) 7.1 (00:00) 12 8.33 (14:20) 4.72 (14:30) 1.4 0.2 0.4 0.4 0.4
14-05-2020 19.2 (19:10) 9.6 (00:00) 14.4 11.39 (14:30) 6.67 (14:20) 2.2 0 0.8 0.8 0.6
13-05-2020 22.3 (16:40) 6.3 (00:00) 14.3 8.89 (11:20) 5.83 (19:00) 2.4 2.2 0.2 0 0
12-05-2020 23.5 (13:20) 9.7 (00:00) 16.6 13.61 (23:30) 8.33 (23:30) 0.2 0 0 0 0.2
11-05-2020 24.9 (16:40) 9.7 (00:00) 17.3 12.5 (15:50) 7.22 (19:50) 0 0 0 0 0
10-05-2020 21.9 (16:10) 12 (00:00) 16.9 15 (13:30) 9.72 (11:50) 2.8 0.2 1.8 0.8 0
09-05-2020 23.5 (14:00) 12.9 (00:00) 18.2 10.56 (17:30) 7.5 (17:20) 0 0 0 0 0
08-05-2020 26 (16:40) 13.6 (00:00) 19.8 11.11 (10:50) 6.94 (11:30) 0 0 0 0 0
07-05-2020 26.2 (16:50) 10.6 (00:00) 18.4 10 (14:10) 6.94 (19:10) 0 0 0 0 0
06-05-2020 28 (13:00) 9.9 (00:00) 18.9 7.78 (13:20) 5 (13:20) 0 0 0 0 0
05-05-2020 30.5 (14:40) 9.4 (00:00) 19.9 7.78 (16:00) 4.72 (16:40) 0 0 0 0 0
04-05-2020 28.7 (15:30) 7 (00:00) 17.9 12.22 (16:50) 8.61 (13:20) 0 0 0 0 0
03-05-2020 28.2 (15:40) 9.2 (00:00) 18.7 9.44 (16:40) 6.67 (15:50) 0 0 0 0 0
02-05-2020 30.8 (17:20) 13.4 (00:00) 22.1 8.33 (12:10) 5 (01:20) 0 0 0 0 0
01-05-2020 27 (16:00) 12.5 (00:00) 19.8 13.06 (17:10) 7.78 (16:50) 0 0 0 0 0
30-04-2020 24.1 (16:40) 7.5 (00:00) 15.8 11.67 (14:10) 6.94 (13:40) 0 0 0 0 0
29-04-2020 24 (17:20) 5.3 (00:00) 14.7 10 (15:50) 5.83 (18:50) 0 0 0 0 0
28-04-2020 20.8 (18:30) 6.8 (00:00) 13.8 8.06 (18:10) 5 (18:40) 0 0 0 0 0

Gráficas

Temp. máximas Temp. mínimas Temp. medias Precipitaciones Rachas de viento máximas Velocidades máximas media en intervalos de 10 minutos

Datos horarios

Fecha y hora oficial Temperatura (ºC) Velocidad del viento (km/h) Dirección del viento Racha (km/h) Dirección de racha Precipitación (mm) Presión (hPa) Tendencia (hPa) Humedad (%)
2020-05-27 23:00:00 15.9 8 Nordeste 25 Nordeste 0 -- -- 79
2020-05-27 22:00:00 17 16 Norte 28 Nordeste 0 -- -- 74
2020-05-27 21:00:00 19 19 Nordeste 34 Norte 0 -- -- 65
2020-05-27 20:00:00 21.4 17 Nordeste 39 Nordeste 0 -- -- 54
2020-05-27 19:00:00 23.1 27 Nordeste 42 Nordeste 0 -- -- 45
2020-05-27 18:00:00 24.5 23 Nordeste 39 Nordeste 0 -- -- 42
2020-05-27 17:00:00 25.3 27 Nordeste 41 Norte 0 -- -- 38
2020-05-27 16:00:00 25.7 28 Norte 41 Nordeste 0 -- -- 40
2020-05-27 15:00:00 25.7 24 Nordeste 36 Norte 0 -- -- 41
2020-05-27 14:00:00 25.5 23 Nordeste 41 Norte 0 -- -- 47
2020-05-27 13:00:00 25 27 Nordeste 41 Nordeste 0 -- -- 49
2020-05-27 12:00:00 24.6 22 Nordeste 39 Nordeste 0.2 -- -- 48
2020-05-27 11:00:00 23.6 11 Nordeste 18 Nordeste 0 -- -- 50
2020-05-27 10:00:00 20.1 6 Noroeste 15 Noroeste 0 -- -- 66
2020-05-27 09:00:00 17.3 9 Noroeste 17 Noroeste 0 -- -- 77
2020-05-27 08:00:00 14.4 10 Noroeste 15 Oeste 0 -- -- 89
2020-05-27 07:00:00 12.6 8 Noroeste 16 Noroeste 0 -- -- 92
2020-05-27 06:00:00 12.2 8 Noroeste 15 Noroeste 0 -- -- 93
2020-05-27 05:00:00 12.6 10 Noroeste 15 Noroeste 0 -- -- 91
2020-05-27 04:00:00 13 8 Noroeste 18 Noroeste 0 -- -- 90
2020-05-27 03:00:00 13.1 8 Noroeste 15 Noroeste 0 -- -- 91
2020-05-27 02:00:00 12.5 4 Noroeste 9 Noroeste 0.2 -- -- 91
2020-05-27 01:00:00 12.6 8 Noroeste 10 Noroeste 0 -- -- 91
2020-05-27 00:00:00 13.7 3 Noroeste 6 Norte 0 -- -- 88
2020-05-26 23:00:00 15.4 0 Calma 10 Sur 0 -- -- 85
2020-05-26 22:00:00 18.1 5 Sur 16 Sudoeste 0 -- -- 75
2020-05-26 21:00:00 20.3 5 Noroeste 32 Nordeste 0 -- -- 68
2020-05-26 20:00:00 22.3 18 Nordeste 38 Nordeste 0 -- -- 49
2020-05-26 19:00:00 23.6 23 Nordeste 42 Nordeste 0 -- -- 51
2020-05-26 18:00:00 24.8 24 Nordeste 40 Norte 0 -- -- 52
2020-05-26 17:00:00 25.4 22 Nordeste 36 Nordeste 0 -- -- 51
2020-05-26 16:00:00 25.1 24 Nordeste 39 Norte 0.2 -- -- 55
2020-05-26 15:00:00 24.6 22 Nordeste 34 Nordeste 0 -- -- 54
2020-05-26 14:00:00 23.5 16 Nordeste 29 Norte 0 -- -- 59
2020-05-26 13:00:00 21.1 14 Nordeste 27 Norte 0 -- -- 65
2020-05-26 12:00:00 19.7 12 Norte 25 Norte 0 -- -- 72
2020-05-26 11:00:00 18.2 14 Norte 24 Nordeste 0.2 -- -- 83
2020-05-26 10:00:00 15.7 6 Noroeste 21 Oeste 0 -- -- 95
2020-05-26 09:00:00 15.5 6 Noroeste 14 Oeste 0 -- -- 96
2020-05-26 08:00:00 14.5 7 Noroeste 11 Noroeste 0 -- -- 97
2020-05-26 07:00:00 12.5 2 Sur 5 Nordeste 0 -- -- 96
2020-05-26 06:00:00 12.2 2 Nordeste 6 Noroeste 0 -- -- 96
2020-05-26 05:00:00 12.2 0 Calma 9 Noroeste 0.2 -- -- 95
2020-05-26 04:00:00 12.8 3 Oeste 8 Noroeste 0 -- -- 93
2020-05-26 03:00:00 13.8 2 Norte 13 Noroeste 0 -- -- 92
2020-05-26 02:00:00 14.4 11 Oeste 16 Noroeste 0 -- -- 92
2020-05-26 01:00:00 14.5 12 Noroeste 18 Noroeste 0 -- -- 91
2020-05-26 00:00:00 13.4 6 Noroeste 10 Noroeste 0 -- -- 94
2020-05-25 23:00:00 14 3 Oeste 7 Oeste 0.2 -- -- 92
2020-05-25 22:00:00 15.3 5 Sudoeste 6 Sudoeste 0 -- -- 91
2020-05-25 21:00:00 16.1 3 Sur 8 Sudeste 0 -- -- 88
2020-05-25 20:00:00 16.1 6 Sudeste 17 Sudeste 0 -- -- 84
2020-05-25 19:00:00 16 12 Sur 21 Sudeste 0.2 -- -- 84
2020-05-25 18:00:00 15.7 13 Sudeste 18 Sudeste 0 -- -- 83
2020-05-25 17:00:00 16.8 9 Sudeste 18 Oeste 0 -- -- 84
2020-05-25 16:00:00 17.6 11 Oeste 15 Oeste 0 -- -- 74
2020-05-25 15:00:00 21.5 9 Sudoeste 17 Sur 0 -- -- 41
2020-05-25 14:00:00 22.1 11 Sudoeste 19 Sur 0 -- -- 41
2020-05-25 13:00:00 22.5 13 Sur 22 Sudeste 0 -- -- 40
2020-05-25 12:00:00 21.7 13 Sudeste 20 Sur 0 -- -- 47
2020-05-25 11:00:00 20.7 13 Sudeste 20 Sur 0 -- -- 50
2020-05-25 10:00:00 19 3 Oeste 7 Sudoeste 0 -- -- 60
2020-05-25 09:00:00 15.4 0 Calma 4 Sudoeste 0 -- -- 91
2020-05-25 08:00:00 11.5 0 Calma 5 Noroeste 0 -- -- 95
2020-05-25 07:00:00 10.1 0 Calma 3 Oeste 0 -- -- 94
2020-05-25 06:00:00 10.3 0 Calma 4 Sudoeste 0 -- -- 93
2020-05-25 05:00:00 10.5 4 Sudoeste 6 Oeste 0 -- -- 92
2020-05-25 04:00:00 11.3 0 Calma 4 Este 0 -- -- 91
2020-05-25 03:00:00 11.8 3 Sudoeste 4 Sudoeste 0 -- -- 89
2020-05-25 02:00:00 12.9 2 Este 4 Este 0 -- -- 86
2020-05-25 01:00:00 14.7 3 Sudeste 9 Sudeste 0 -- -- 80
2020-05-25 00:00:00 16 4 Sudoeste 15 Sudoeste 0 -- -- 75
2020-05-24 23:00:00 16.8 10 Sudoeste 19 Sur 0 -- -- 74
2020-05-24 22:00:00 17.7 7 Sur 18 Sur 0 -- -- 72
2020-05-24 21:00:00 19.4 12 Sur 22 Sudeste 0 -- -- 70
2020-05-24 20:00:00 22.1 13 Sur 21 Sudeste 0 -- -- 63
2020-05-24 19:00:00 23.9 16 Sur 24 Sur 0 -- -- 57
2020-05-24 18:00:00 25.2 15 Sur 24 Sudeste 0 -- -- 56
2020-05-24 17:00:00 26.2 13 Sur 25 Sur 0 -- -- 53
2020-05-24 16:00:00 26.5 9 Sur 23 Sur 0 -- -- 53
2020-05-24 15:00:00 26.3 14 Sur 28 Sudeste 0 -- -- 48
2020-05-24 14:00:00 26.3 7 Sudeste 24 Sur 0 -- -- 47
2020-05-24 13:00:00 25.8 14 Sur 31 Sur 0 -- -- 51
2020-05-24 12:00:00 24.2 8 Nordeste 19 Norte 0 -- -- 57
2020-05-24 11:00:00 22.9 8 Norte 25 Nordeste 0 -- -- 61
2020-05-24 10:00:00 21.2 14 Norte 27 Nordeste 0 -- -- 67
2020-05-24 09:00:00 19.7 13 Nordeste 22 Norte 0 -- -- 70
2020-05-24 08:00:00 17.2 8 Norte 19 Norte 0 -- -- 82
2020-05-24 07:00:00 15.6 13 Norte 25 Norte 0 -- -- 89
2020-05-24 06:00:00 15.8 15 Norte 33 Nordeste 0 -- -- 88
2020-05-24 05:00:00 15.9 13 Norte 23 Norte 0 -- -- 90
2020-05-24 04:00:00 16.1 10 Norte 22 Norte 0 -- -- 90
2020-05-24 03:00:00 16.7 13 Norte 23 Norte 0 -- -- 87
2020-05-24 02:00:00 16.9 9 Norte 15 Norte 0 -- -- 86
2020-05-24 01:00:00 17.7 4 Noroeste 14 Norte 0 -- -- 81
2020-05-24 00:00:00 17.1 7 Norte 12 Sudeste 0 -- -- 79
2020-05-23 23:00:00 18.5 9 Sudeste 13 Sudeste 0 -- -- 62
2020-05-23 22:00:00 20.3 7 Este 15 Sudeste 0 -- -- 55
2020-05-23 21:00:00 23.9 13 Sur 23 Sudeste 0 -- -- 42
2020-05-23 20:00:00 25.5 17 Sudeste 31 Sudeste 0 -- -- 40
2020-05-23 19:00:00 26.6 23 Sudeste 31 Sudeste 0 -- -- 39
2020-05-23 18:00:00 28.5 19 Sur 27 Sur 0 -- -- 38
2020-05-23 17:00:00 29.5 20 Sudeste 32 Sudeste 0 -- -- 35
2020-05-23 16:00:00 29.7 20 Sudeste 31 Sudeste 0 -- -- 36
2020-05-23 15:00:00 30.2 16 Sur 26 Sudeste 0 -- -- 34
2020-05-23 14:00:00 29.8 13 Sur 25 Sudeste 0 -- -- 33
2020-05-23 13:00:00 28.9 13 Sudeste 28 Sur 0 -- -- 32
2020-05-23 12:00:00 27.8 12 Sudeste 21 Sudeste 0 -- -- 33
2020-05-23 11:00:00 26.2 12 Sudeste 17 Sur 0 -- -- 35
2020-05-23 10:00:00 22 2 Sudeste 5 Noroeste 0 -- -- 53
2020-05-23 09:00:00 17.9 0 Calma 4 Nordeste 0 -- -- 69
2020-05-23 08:00:00 12.9 2 Nordeste 4 Este 0 -- -- 90
2020-05-23 07:00:00 10.3 3 Oeste 5 Oeste 0 -- -- 91
2020-05-23 06:00:00 10.9 2 Norte 6 Noroeste 0 -- -- 89
2020-05-23 05:00:00 12.1 2 Nordeste 7 Norte 0 -- -- 85
2020-05-23 04:00:00 13.7 5 Sur 7 Sudeste 0 -- -- 79
2020-05-23 03:00:00 14.8 6 Sur 12 Sudeste 0 -- -- 74
2020-05-23 02:00:00 15.2 5 Sur 9 Sudeste 0 -- -- 74
2020-05-23 01:00:00 16.2 7 Sudeste 12 Sudeste 0 -- -- 70
2020-05-23 00:00:00 17.6 8 Sudeste 13 Sudeste 0 -- -- 64
2020-05-22 23:00:00 18.1 7 Sudeste 15 Sudeste 0 -- -- 62
2020-05-22 22:00:00 19.8 11 Sudeste 22 Sur 0 -- -- 52
2020-05-22 21:00:00 22.3 13 Sur 28 Sur 0 -- -- 46
2020-05-22 20:00:00 24.9 21 Sur 29 Sur 0 -- -- 40
2020-05-22 19:00:00 27.2 19 Sur 31 Sur 0 -- -- 38
2020-05-22 18:00:00 28.5 22 Sur 34 Sur 0 -- -- 39
2020-05-22 17:00:00 29.6 22 Sur 32 Sur 0 -- -- 38
2020-05-22 16:00:00 30.5 19 Sudeste 29 Sudeste 0 -- -- 40
2020-05-22 15:00:00 31.3 17 Sur 28 Sudeste 0 -- -- 38
2020-05-22 14:00:00 31.7 8 Sur 22 Sudeste 0 -- -- 33
2020-05-22 13:00:00 30.9 8 Sur 18 Sudeste 0 -- -- 35
2020-05-22 12:00:00 29.4 6 Sur 14 Sudoeste 0 -- -- 39
2020-05-22 11:00:00 26.4 3 Este 6 Este 0 -- -- 48
2020-05-22 10:00:00 22.1 0 Calma 6 Norte 0 -- -- 60
2020-05-22 09:00:00 18 3 Nordeste 5 Norte 0 -- -- 76
2020-05-22 08:00:00 13.5 0 Calma 4 Norte 0 -- -- 95
2020-05-22 07:00:00 10.6 3 Norte 5 Norte 0 -- -- 94
2020-05-22 06:00:00 10.9 0 Calma 5 Oeste 0 -- -- 94
2020-05-22 05:00:00 11.1 0 Calma 2 Noroeste 0 -- -- 93
2020-05-22 04:00:00 11.6 0 Calma 3 Oeste 0 -- -- 90
2020-05-22 03:00:00 12.3 0 Calma 5 Oeste 0 -- -- 89
2020-05-22 02:00:00 13.5 0 Calma 4 Sudoeste 0 -- -- 85
2020-05-22 01:00:00 15.2 2 Sudoeste 9 Sudoeste 0 -- -- 78
2020-05-22 00:00:00 17.7 6 Sur 9 Sur 0 -- -- 68
2020-05-21 23:00:00 18.7 5 Sur 14 Sudeste 0 -- -- 64
2020-05-21 22:00:00 19.7 12 Sudeste 17 Sur 0 -- -- 59
2020-05-21 21:00:00 22.6 9 Sur 21 Sur 0 -- -- 47
2020-05-21 20:00:00 25.1 18 Sur 27 Sur 0 -- -- 43
2020-05-21 19:00:00 26.7 19 Sur 28 Sudeste 0 -- -- 43
2020-05-21 18:00:00 27.7 21 Sur 29 Sur 0 -- -- 44
2020-05-21 17:00:00 28.8 18 Sur 30 Sudeste 0 -- -- 43
2020-05-21 16:00:00 29.4 17 Sur 25 Sur 0 -- -- 41
2020-05-21 15:00:00 29.3 14 Sudeste 29 Sudeste 0 -- -- 39
2020-05-21 14:00:00 29.2 13 Sur 24 Sur 0 -- -- 41
2020-05-21 13:00:00 28.5 7 Sudeste 21 Sudeste 0 -- -- 44
2020-05-21 12:00:00 27 4 Sur 10 Oeste 0 -- -- 47
2020-05-21 11:00:00 24.6 4 Nordeste 10 Noroeste 0 -- -- 51
2020-05-21 10:00:00 21.6 7 Noroeste 12 Noroeste 0 -- -- 60
2020-05-21 09:00:00 18.1 5 Norte 10 Norte 0 -- -- 77
2020-05-21 08:00:00 14.1 3 Norte 6 Norte 0 -- -- 96
2020-05-21 07:00:00 11.4 3 Norte 6 Norte 0 -- -- 95
2020-05-21 06:00:00 11.9 0 Calma 5 Sudoeste 0 -- -- 94
2020-05-21 05:00:00 12.4 3 Oeste 8 Noroeste 0 -- -- 94
2020-05-21 04:00:00 12.8 3 Nordeste 9 Sudoeste 0 -- -- 93
2020-05-21 03:00:00 13.1 2 Nordeste 8 Nordeste 0 -- -- 91
2020-05-21 02:00:00 13.8 4 Noroeste 6 Noroeste 0 -- -- 90
2020-05-21 01:00:00 14.5 2 Noroeste 4 Norte 0 -- -- 87
2020-05-21 00:00:00 16.2 0 Calma 9 Sudeste 0 -- -- 79
2020-05-20 23:00:00 18.5 8 Sur 13 Sur 0 -- -- 69
2020-05-20 22:00:00 19.8 8 Sur 19 Sudeste 0 -- -- 64
2020-05-20 21:00:00 22.5 14 Sudeste 22 Sudeste 0 -- -- 56
2020-05-20 20:00:00 25.3 15 Sudeste 26 Sudeste 0 -- -- 50
2020-05-20 19:00:00 27.2 19 Sudeste 25 Sur 0 -- -- 47
2020-05-20 18:00:00 28.6 16 Sudeste 26 Sudeste 0 -- -- 43
2020-05-20 17:00:00 29.4 17 Sur 30 Sur 0 -- -- 43
2020-05-20 16:00:00 29.7 15 Sudeste 24 Sur 0.2 -- -- 42
2020-05-20 15:00:00 30.9 4 Este 12 Norte 0 -- -- 32
2020-05-20 14:00:00 30.2 6 Oeste 12 Oeste 0 -- -- 31
2020-05-20 13:00:00 28.5 7 Noroeste 13 Noroeste 0 -- -- 39
2020-05-20 12:00:00 26.8 5 Noroeste 13 Norte 0 -- -- 41
2020-05-20 11:00:00 24.2 5 Noroeste 11 Norte 0 -- -- 51
2020-05-20 10:00:00 20.3 8 Norte 14 Norte 0 -- -- 66
2020-05-20 09:00:00 16.6 5 Norte 8 Norte 0 -- -- 83
2020-05-20 08:00:00 12.8 3 Noroeste 7 Norte 0 -- -- 97
2020-05-20 07:00:00 10.3 4 Norte 8 Norte 0 -- -- 96
2020-05-20 06:00:00 10.6 5 Norte 8 Norte 0 -- -- 95
2020-05-20 05:00:00 11.2 0 Calma 9 Noroeste 0 -- -- 95
2020-05-20 04:00:00 11.5 4 Norte 6 Norte 0.2 -- -- 94
2020-05-20 03:00:00 12.1 4 Oeste 8 Noroeste 0 -- -- 92
2020-05-20 02:00:00 12.9 0 Calma 6 Noroeste 0 -- -- 91
2020-05-20 01:00:00 14.4 2 Nordeste 8 Sudoeste 0 -- -- 86
2020-05-20 00:00:00 16.5 3 Este 14 Sur 0 -- -- 82
2020-05-19 23:00:00 18.2 9 Sur 18 Sur 0 -- -- 74
2020-05-19 22:00:00 18.8 14 Sudeste 17 Sudeste 0 -- -- 71
2020-05-19 21:00:00 21.5 14 Sudeste 20 Sudeste 0 -- -- 61
2020-05-19 20:00:00 24.4 15 Sudeste 21 Sudeste 0 -- -- 51
2020-05-19 19:00:00 26.6 15 Sudeste 25 Sudeste 0 -- -- 46
2020-05-19 18:00:00 27.7 13 Sudeste 21 Este 0 -- -- 45
2020-05-19 17:00:00 30 11 Noroeste 26 Oeste 0 -- -- 32
2020-05-19 16:00:00 30.2 15 Oeste 27 Oeste 0.2 -- -- 31
2020-05-19 15:00:00 28.6 12 Noroeste 25 Oeste 0 -- -- 37
2020-05-19 14:00:00 27.3 8 Sur 20 Sudeste 0 -- -- 41
2020-05-19 13:00:00 26.4 8 Sudoeste 18 Sudeste 0 -- -- 46
2020-05-19 12:00:00 24.7 10 Sudoeste 21 Sur 0 -- -- 48
2020-05-19 11:00:00 22.8 5 Sur 9 Sur 0 -- -- 59
2020-05-19 10:00:00 18.9 3 Oeste 6 Noroeste 0 -- -- 72
2020-05-19 09:00:00 15.1 0 Calma 6 Noroeste 0 -- -- 92
2020-05-19 08:00:00 11.7 3 Norte 6 Norte 0.2 -- -- 98
2020-05-19 07:00:00 8.9 3 Norte 6 Noroeste 0 -- -- 96
2020-05-19 06:00:00 9.1 2 Norte 5 Oeste 0 -- -- 95
2020-05-19 05:00:00 9.8 4 Oeste 6 Noroeste 0 -- -- 95
2020-05-19 04:00:00 10.2 3 Noroeste 8 Sudoeste 0 -- -- 94
2020-05-19 03:00:00 11.1 5 Sudoeste 6 Sudoeste 0 -- -- 93
2020-05-19 02:00:00 11.9 0 Calma 5 Sudoeste 0 -- -- 92
2020-05-19 01:00:00 13 0 Calma 4 Sur 0 -- -- 90
2020-05-19 00:00:00 14.4 0 Calma 6 Norte 0 -- -- 89
2020-05-18 23:00:00 16 4 Sur 13 Sudeste 0.2 -- -- 81
2020-05-18 22:00:00 17.4 12 Sudeste 23 Sudeste 0 -- -- 76
2020-05-18 21:00:00 19.2 18 Sudeste 24 Sudeste 0 -- -- 68
2020-05-18 20:00:00 21.2 18 Sudeste 28 Sudeste 0 -- -- 62
2020-05-18 19:00:00 23.2 19 Sudeste 26 Sudeste 0 -- -- 56
2020-05-18 18:00:00 27 4 Norte 20 Norte 0 -- -- 32
2020-05-18 17:00:00 27.2 7 Noroeste 22 Norte 0 -- -- 36
2020-05-18 16:00:00 26.7 5 Noroeste 23 Noroeste 0.2 -- -- 38
2020-05-18 15:00:00 25.8 12 Oeste 22 Oeste 0 -- -- 37
2020-05-18 14:00:00 24.7 8 Noroeste 17 Noroeste 0 -- -- 41
2020-05-18 13:00:00 23.2 7 Oeste 14 Noroeste 0 -- -- 47
2020-05-18 12:00:00 22.1 3 Oeste 20 Sudoeste 0 -- -- 53
2020-05-18 11:00:00 19.9 9 Oeste 21 Noroeste 0.2 -- -- 62
2020-05-18 10:00:00 16.9 4 Norte 12 Norte 0 -- -- 79
2020-05-18 09:00:00 13.8 7 Norte 13 Norte 0 -- -- 97
2020-05-18 08:00:00 11.3 3 Norte 9 Norte 0 -- -- 98
2020-05-18 07:00:00 9.1 3 Norte 4 Nordeste 0 -- -- 97
2020-05-18 06:00:00 10.1 0 Calma 8 Noroeste 0 -- -- 97
2020-05-18 05:00:00 10.5 6 Noroeste 8 Noroeste 0 -- -- 97
2020-05-18 04:00:00 11.1 4 Noroeste 9 Noroeste 0 -- -- 97
2020-05-18 03:00:00 11.8 5 Noroeste 9 Noroeste 0.2 -- -- 97
2020-05-18 02:00:00 11.9 4 Oeste 5 Oeste 0 -- -- 96
2020-05-18 01:00:00 11.8 0 Calma 5 Sur 0 -- -- 96
2020-05-18 00:00:00 11 0 Calma 7 Oeste 0 -- -- 94
2020-05-17 23:00:00 11.9 0 Calma 4 Sudoeste 0 -- -- 93
2020-05-17 22:00:00 13.2 3 Sudoeste 6 Sudoeste 0 -- -- 90
2020-05-17 21:00:00 15.3 3 Sudoeste 8 Sudeste 0.2 -- -- 87
2020-05-17 20:00:00 16 3 Este 15 Sur 0 -- -- 86
2020-05-17 19:00:00 15.5 9 Sur 16 Sudoeste 0 -- -- 85
2020-05-17 18:00:00 15.2 0 Calma 10 Oeste 0 -- -- 86
2020-05-17 17:00:00 14.2 9 Oeste 28 Oeste 0 -- -- 89
2020-05-17 16:00:00 17.8 20 Este 32 Sudeste 0 -- -- 71
2020-05-17 15:00:00 21.9 13 Sur 23 Sur 0.2 -- -- 53
2020-05-17 14:00:00 20.4 14 Sudoeste 23 Sur 0 -- -- 61
2020-05-17 13:00:00 19.3 8 Sudeste 18 Sudeste 0 -- -- 68
2020-05-17 12:00:00 16.6 9 Este 14 Este 0 -- -- 80
2020-05-17 11:00:00 14.9 2 Sur 5 Sur 0 -- -- 91
2020-05-17 10:00:00 13.4 0 Calma 6 Noroeste 0.2 -- -- 97
2020-05-17 09:00:00 12.4 4 Noroeste 6 Noroeste 0 -- -- 97
2020-05-17 08:00:00 11.5 0 Calma 5 Sudoeste 0 -- -- 97
2020-05-17 07:00:00 10.5 0 Calma 5 Oeste 0 -- -- 96
2020-05-17 06:00:00 10.9 6 Oeste 8 Oeste 0 -- -- 96
2020-05-17 05:00:00 11.8 3 Noroeste 5 Noroeste 0 -- -- 95
2020-05-17 04:00:00 12.3 4 Norte 5 Norte 0.2 -- -- 95
2020-05-17 03:00:00 12.6 0 Calma 5 Noroeste 0 -- -- 94
2020-05-17 02:00:00 12.7 5 Oeste 8 Oeste 0 -- -- 94
2020-05-17 01:00:00 12.9 2 Sur 4 Noroeste 0 -- -- 93
2020-05-17 00:00:00 13 3 Oeste 8 Oeste 0 -- -- 91
2020-05-16 23:00:00 13.3 4 Norte 13 Noroeste 0 -- -- 88
2020-05-16 22:00:00 13.7 8 Norte 23 Oeste 0.2 -- -- 84
2020-05-16 21:00:00 15.6 6 Noroeste 17 Norte 0 -- -- 78
2020-05-16 20:00:00 16.5 9 Norte 15 Norte 0 -- -- 74
2020-05-16 19:00:00 17.5 7 Nordeste 19 Nordeste 0 -- -- 66
2020-05-16 18:00:00 17.2 16 Nordeste 23 Nordeste 0.2 -- -- 68
2020-05-16 17:00:00 17.8 15 Norte 25 Nordeste 0 -- -- 65
2020-05-16 16:00:00 16.9 18 Norte 29 Nordeste 0 -- -- 72
2020-05-16 15:00:00 15.9 13 Norte 30 Nordeste 0 -- -- 77
2020-05-16 14:00:00 16 19 Norte 35 Nordeste 0.2 -- -- 70
2020-05-16 13:00:00 15.6 19 Norte 34 Norte 0 -- -- 80
2020-05-16 12:00:00 15.9 22 Norte 35 Nordeste 0 -- -- 81
2020-05-16 11:00:00 15.4 18 Norte 32 Norte 0 -- -- 81
2020-05-16 10:00:00 15.8 14 Norte 29 Nordeste 0.2 -- -- 82
2020-05-16 09:00:00 13.7 14 Norte 28 Norte 0 -- -- 89
2020-05-16 08:00:00 12.7 9 Noroeste 19 Noroeste 0 -- -- 91
2020-05-16 07:00:00 12 8 Noroeste 15 Noroeste 0 -- -- 94
2020-05-16 06:00:00 11.8 9 Noroeste 16 Noroeste 0.2 -- -- 94
2020-05-16 05:00:00 11.6 7 Noroeste 17 Noroeste 0 -- -- 95
2020-05-16 04:00:00 11.7 7 Noroeste 14 Noroeste 0 -- -- 95
2020-05-16 03:00:00 11.4 9 Noroeste 15 Noroeste 0 -- -- 95
2020-05-16 02:00:00 11 6 Noroeste 12 Noroeste 0.2 -- -- 95
2020-05-16 01:00:00 10.7 5 Noroeste 13 Noroeste 0 -- -- 94
2020-05-16 00:00:00 11.4 9 Noroeste 19 Noroeste 0 -- -- 93
2020-05-15 23:00:00 11.7 8 Norte 12 Norte 0 -- -- 91
2020-05-15 22:00:00 13 3 Nordeste 19 Nordeste 0.2 -- -- 87
2020-05-15 21:00:00 13.6 13 Nordeste 21 Norte 0 -- -- 85
2020-05-15 20:00:00 14.2 14 Nordeste 21 Nordeste 0 -- -- 85
2020-05-15 19:00:00 15.3 9 Nordeste 21 Nordeste 0.2 -- -- 81
2020-05-15 18:00:00 15 14 Nordeste 24 Nordeste 0 -- -- 81
2020-05-15 17:00:00 13.7 16 Nordeste 26 Nordeste 0 -- -- 90
2020-05-15 16:00:00 13.7 5 Nordeste 14 Nordeste 0.2 -- -- 92
2020-05-15 15:00:00 14.3 13 Nordeste 30 Norte 0 -- -- 86
2020-05-15 14:00:00 16.7 7 Noroeste 15 Noroeste 0 -- -- 71
2020-05-15 13:00:00 16.8 8 Noroeste 15 Noroeste 0.2 -- -- 67
2020-05-15 12:00:00 16.8 8 Noroeste 14 Noroeste 0 -- -- 67
2020-05-15 11:00:00 15.7 8 Noroeste 14 Noroeste 0 -- -- 71
2020-05-15 10:00:00 13.6 8 Oeste 11 Noroeste 0.2 -- -- 83
2020-05-15 09:00:00 11.5 5 Norte 11 Norte 0 -- -- 92
2020-05-15 08:00:00 10.2 5 Norte 10 Norte 0 -- -- 97
2020-05-15 07:00:00 8.1 0 Calma 8 Oeste 0.2 -- -- 96
2020-05-15 06:00:00 8.4 6 Noroeste 10 Norte 0 -- -- 96
2020-05-15 05:00:00 8.6 2 Noroeste 12 Norte 0 -- -- 96
2020-05-15 04:00:00 7.5 6 Oeste 8 Oeste 0 -- -- 95
2020-05-15 03:00:00 7.4 0 Calma 6 Oeste 0.2 -- -- 95
2020-05-15 02:00:00 8 0 Calma 6 Sudoeste 0 -- -- 93
2020-05-15 01:00:00 9 2 Noroeste 5 Noroeste 0 -- -- 92
2020-05-15 00:00:00 10.4 0 Calma 9 Sudoeste 0.2 -- -- 91
2020-05-14 23:00:00 12.7 2 Sudeste 5 Sur 0 -- -- 86
2020-05-14 22:00:00 13.4 3 Sur 7 Noroeste 0.2 -- -- 85
2020-05-14 21:00:00 15.1 5 Norte 15 Noroeste 0 -- -- 73
2020-05-14 20:00:00 17.9 8 Noroeste 18 Oeste 0.2 -- -- 58
2020-05-14 19:00:00 19.1 12 Oeste 21 Oeste 0 -- -- 54
2020-05-14 18:00:00 18 10 Oeste 30 Oeste 0.2 -- -- 59
2020-05-14 17:00:00 17.6 19 Oeste 30 Oeste 0 -- -- 57
2020-05-14 16:00:00 17.4 19 Oeste 40 Oeste 0.2 -- -- 59
2020-05-14 15:00:00 15.4 23 Noroeste 41 Oeste 0.2 -- -- 61
2020-05-14 14:00:00 13.7 21 Noroeste 39 Noroeste 0 -- -- 73
2020-05-14 13:00:00 12.4 16 Noroeste 28 Noroeste 0.2 -- -- 85
2020-05-14 12:00:00 11.3 12 Noroeste 22 Oeste 0.2 -- -- 90
2020-05-14 11:00:00 10.2 14 Noroeste 32 Noroeste 0 -- -- 93
2020-05-14 10:00:00 10 15 Oeste 28 Oeste 0.2 -- -- 94
2020-05-14 09:00:00 10.1 12 Noroeste 24 Noroeste 0.2 -- -- 94
2020-05-14 08:00:00 11.2 4 Oeste 10 Oeste 0 -- -- 93
2020-05-14 07:00:00 12.2 7 Oeste 13 Oeste 0.2 -- -- 93
2020-05-14 06:00:00 12.8 5 Sudeste 15 Sudeste 0 -- -- 92
2020-05-14 05:00:00 12.9 5 Sudeste 16 Sudeste 0 -- -- 88
2020-05-14 04:00:00 12.8 15 Sur 24 Sur 0 -- -- 86
2020-05-14 03:00:00 10.2 4 Sudeste 10 Sudeste 0 -- -- 92
2020-05-14 02:00:00 9.7 9 Sudoeste 10 Sudoeste 0 -- -- 91
2020-05-14 01:00:00 10 0 Calma 6 Noroeste 0 -- -- 88
2020-05-14 00:00:00 11 5 Oeste 12 Sudeste 0 -- -- 85
2020-05-13 23:00:00 12.4 9 Sudeste 13 Sur 0 -- -- 78
2020-05-13 22:00:00 13.7 8 Sudeste 21 Sudeste 0 -- -- 72
2020-05-13 21:00:00 16.3 16 Sudeste 29 Sudeste 0 -- -- 60
2020-05-13 20:00:00 18.5 20 Sudeste 28 Sudeste 0 -- -- 54
2020-05-13 19:00:00 19.7 21 Sudeste 30 Sudeste 0 -- -- 53
2020-05-13 18:00:00 20.2 17 Sudeste 26 Sur 0 -- -- 50
2020-05-13 17:00:00 21.5 5 Oeste 16 Noroeste 0 -- -- 46
2020-05-13 16:00:00 20.1 8 Nordeste 19 Oeste 0 -- -- 52
2020-05-13 15:00:00 20.4 6 Noroeste 25 Noroeste 0 -- -- 50
2020-05-13 14:00:00 21.4 12 Oeste 24 Oeste 0 -- -- 47
2020-05-13 13:00:00 19.5 8 Oeste 24 Oeste 0 -- -- 53
2020-05-13 12:00:00 18.7 10 Oeste 32 Noroeste 0 -- -- 58
2020-05-13 11:00:00 17.4 12 Oeste 26 Noroeste 0 -- -- 62
2020-05-13 10:00:00 14.8 6 Noroeste 12 Norte 0 -- -- 72
2020-05-13 09:00:00 12 7 Norte 12 Norte 0 -- -- 90
2020-05-13 08:00:00 8.9 0 Calma 8 Norte 0 -- -- 98
2020-05-13 07:00:00 6.5 7 Noroeste 10 Noroeste 0.2 -- -- 97
2020-05-13 06:00:00 7.4 7 Norte 14 Norte 0.6 -- -- 96
2020-05-13 05:00:00 7.7 9 Norte 12 Noroeste 0.6 -- -- 96
2020-05-13 04:00:00 8.2 2 Noroeste 10 Noroeste 0.4 -- -- 95
2020-05-13 03:00:00 8.8 7 Noroeste 11 Noroeste 0.4 -- -- 95
2020-05-13 02:00:00 9.4 5 Noroeste 10 Norte 0.2 -- -- 94
2020-05-13 01:00:00 10.5 6 Noroeste 18 Norte 0 -- -- 94
2020-05-13 00:00:00 10.8 7 Nordeste 49 Oeste 0 -- -- 91
2020-05-12 23:00:00 12.8 10 Oeste 26 Oeste 0 -- -- 86
2020-05-12 22:00:00 13.2 17 Oeste 31 Oeste 0 -- -- 81
2020-05-12 21:00:00 14.7 9 Noroeste 21 Norte 0 -- -- 83
2020-05-12 20:00:00 17.4 10 Norte 17 Norte 0 -- -- 75
2020-05-12 19:00:00 19.3 4 Este 13 Nordeste 0.2 -- -- 63
2020-05-12 18:00:00 17.9 6 Sur 18 Sur 0 -- -- 71
2020-05-12 17:00:00 17.3 17 Sur 28 Sur 0 -- -- 75
2020-05-12 16:00:00 18.7 19 Sur 31 Sur 0 -- -- 66
2020-05-12 15:00:00 20.8 18 Sudeste 32 Nordeste 0 -- -- 50
2020-05-12 14:00:00 21.5 16 Norte 27 Norte 0 -- -- 52
2020-05-12 13:00:00 22.7 8 Nordeste 23 Nordeste 0 -- -- 51
2020-05-12 12:00:00 20.2 4 Nordeste 13 Oeste 0 -- -- 52
2020-05-12 11:00:00 19.6 5 Noroeste 10 Noroeste 0 -- -- 58
2020-05-12 10:00:00 16.7 5 Norte 13 Noroeste 0 -- -- 68
2020-05-12 09:00:00 13.6 6 Noroeste 11 Norte 0 -- -- 82
2020-05-12 08:00:00 12.3 7 Noroeste 14 Noroeste 0 -- -- 86
2020-05-12 07:00:00 11.5 7 Norte 12 Norte 0 -- -- 88
2020-05-12 06:00:00 10.8 5 Noroeste 10 Noroeste 0 -- -- 90
2020-05-12 05:00:00 9.8 3 Noroeste 12 Oeste 0 -- -- 88
2020-05-12 04:00:00 10.4 6 Noroeste 11 Noroeste 0 -- -- 87
2020-05-12 03:00:00 11 7 Noroeste 12 Noroeste 0 -- -- 83
2020-05-12 02:00:00 10.6 5 Oeste 12 Noroeste 0 -- -- 83
2020-05-12 01:00:00 11.7 8 Noroeste 12 Noroeste 0 -- -- 78
2020-05-12 00:00:00 12 4 Sudoeste 10 Oeste 0 -- -- 77
2020-05-11 23:00:00 14.3 8 Oeste 14 Noroeste 0 -- -- 69
2020-05-11 22:00:00 15.7 10 Norte 19 Oeste 0 -- -- 60
2020-05-11 21:00:00 18.8 14 Noroeste 33 Oeste 0 -- -- 49
2020-05-11 20:00:00 20.8 21 Oeste 39 Oeste 0 -- -- 46
2020-05-11 19:00:00 23.3 18 Noroeste 36 Oeste 0 -- -- 41
2020-05-11 18:00:00 24.4 21 Oeste 36 Oeste 0 -- -- 38
2020-05-11 17:00:00 24.9 19 Oeste 44 Oeste 0 -- -- 37
2020-05-11 16:00:00 24.8 15 Oeste 45 Oeste 0 -- -- 38
2020-05-11 15:00:00 23.7 20 Oeste 38 Oeste 0 -- -- 42
2020-05-11 14:00:00 23.3 22 Oeste 41 Oeste 0 -- -- 42
2020-05-11 13:00:00 22.7 19 Oeste 35 Sudoeste 0 -- -- 44
2020-05-11 12:00:00 20.7 19 Oeste 39 Oeste 0 -- -- 48
2020-05-11 11:00:00 19.7 24 Oeste 39 Oeste 0 -- -- 52
2020-05-11 10:00:00 18 18 Oeste 27 Oeste 0 -- -- 58
2020-05-11 09:00:00 15.8 12 Oeste 21 Oeste 0 -- -- 68
2020-05-11 08:00:00 11.5 4 Sudeste 7 Sudeste 0 -- -- 86
2020-05-11 07:00:00 10.3 2 Nordeste 8 Nordeste 0 -- -- 82
2020-05-11 06:00:00 11.9 4 Noroeste 12 Noroeste 0 -- -- 78
2020-05-11 05:00:00 11.6 4 Noroeste 8 Noroeste 0 -- -- 79
2020-05-11 04:00:00 12 3 Nordeste 13 Este 0 -- -- 76
2020-05-11 03:00:00 13 8 Noroeste 17 Noroeste 0 -- -- 70
2020-05-11 02:00:00 13.2 6 Noroeste 27 Oeste 0 -- -- 66
2020-05-11 01:00:00 13 13 Oeste 22 Oeste 0 -- -- 66
2020-05-11 00:00:00 13.5 9 Oeste 24 Oeste 0 -- -- 63
2020-05-10 23:00:00 13.4 6 Oeste 23 Oeste 0 -- -- 64
2020-05-10 22:00:00 14.8 20 Oeste 31 Oeste 0 -- -- 56
2020-05-10 21:00:00 15.7 18 Oeste 44 Oeste 0 -- -- 56
2020-05-10 20:00:00 17.2 24 Oeste 40 Oeste 0 -- -- 50
2020-05-10 19:00:00 18.8 23 Oeste 52 Oeste 0 -- -- 49
2020-05-10 18:00:00 21.3 24 Oeste 44 Oeste 0 -- -- 43
2020-05-10 17:00:00 21.2 27 Oeste 46 Oeste 0 -- -- 41
2020-05-10 16:00:00 21.3 27 Oeste 48 Oeste 0.2 -- -- 40
2020-05-10 15:00:00 21.4 24 Oeste 51 Oeste 0.2 -- -- 40
2020-05-10 14:00:00 20.6 34 Oeste 54 Oeste 0.2 -- -- 43
2020-05-10 13:00:00 19.5 26 Noroeste 48 Oeste 0.2 -- -- 54
2020-05-10 12:00:00 17.8 32 Noroeste 50 Noroeste 0.2 -- -- 57
2020-05-10 11:00:00 16.1 23 Noroeste 40 Noroeste 0.2 -- -- 71
2020-05-10 10:00:00 14.2 9 Noroeste 20 Noroeste 0.4 -- -- 93
2020-05-10 09:00:00 12.1 6 Noroeste 17 Noroeste 0.4 -- -- 93
2020-05-10 08:00:00 12.5 13 Noroeste 41 Oeste 0.4 -- -- 87
2020-05-10 07:00:00 12.6 6 Norte 14 Norte 0.2 -- -- 94
2020-05-10 06:00:00 13.1 3 Noroeste 10 Noroeste 0.2 -- -- 93
2020-05-10 05:00:00 13.4 5 Norte 14 Norte 0 -- -- 92
2020-05-10 04:00:00 14.2 4 Noroeste 16 Norte 0 -- -- 82
2020-05-10 03:00:00 14.5 10 Norte 16 Norte 0 -- -- 80
2020-05-10 02:00:00 15.5 7 Norte 14 Norte 0 -- -- 92
2020-05-10 01:00:00 15 10 Sudeste 13 Sudeste 0 -- -- 91
2020-05-10 00:00:00 15.4 5 Sudeste 9 Este 0 -- -- 89
2020-05-09 23:00:00 15.9 4 Sur 15 Sudeste 0 -- -- 88
2020-05-09 22:00:00 16.7 8 Sudeste 16 Sur 0 -- -- 84
2020-05-09 21:00:00 17.9 10 Sudeste 19 Sudeste 0 -- -- 78
2020-05-09 20:00:00 18.8 12 Sudeste 28 Sur 0 -- -- 75
2020-05-09 19:00:00 19.6 18 Sur 29 Sudeste 0 -- -- 71
2020-05-09 18:00:00 20.8 18 Sudeste 38 Sudeste 0 -- -- 70
2020-05-09 17:00:00 21.8 24 Sudeste 36 Sudeste 0 -- -- 67
2020-05-09 16:00:00 23.1 22 Sudeste 35 Sudeste 0 -- -- 63
2020-05-09 15:00:00 22.9 24 Sudeste 37 Sudeste 0 -- -- 65
2020-05-09 14:00:00 23.5 15 Sur 25 Sur 0 -- -- 62
2020-05-09 13:00:00 22.6 17 Sur 29 Sudeste 0 -- -- 64
2020-05-09 12:00:00 22 17 Sur 27 Sudeste 0 -- -- 65
2020-05-09 11:00:00 21.5 7 Sur 19 Sudeste 0 -- -- 66
2020-05-09 10:00:00 18.9 6 Sudeste 12 Sudeste 0 -- -- 77
2020-05-09 09:00:00 15.7 3 Norte 11 Norte 0 -- -- 91
2020-05-09 08:00:00 13.5 7 Norte 12 Norte 0 -- -- 95
2020-05-09 07:00:00 13 5 Noroeste 10 Noroeste 0 -- -- 94
2020-05-09 06:00:00 12.9 8 Noroeste 11 Noroeste 0 -- -- 93
2020-05-09 05:00:00 13.6 8 Norte 13 Sudeste 0 -- -- 91
2020-05-09 04:00:00 15.3 11 Sudeste 18 Sudeste 0 -- -- 88
2020-05-09 03:00:00 14.9 5 Sudoeste 19 Sur 0 -- -- 89
2020-05-09 02:00:00 14.5 4 Noroeste 13 Sudeste 0 -- -- 89
2020-05-09 01:00:00 16.2 7 Sur 14 Sur 0 -- -- 84
2020-05-09 00:00:00 16.5 11 Sur 20 Sur 0 -- -- 85
2020-05-08 23:00:00 16.2 8 Sur 15 Sur 0 -- -- 86
2020-05-08 22:00:00 17.1 9 Sudeste 30 Nordeste 0 -- -- 81
2020-05-08 21:00:00 18.7 17 Nordeste 35 Nordeste 0 -- -- 73
2020-05-08 20:00:00 20.9 19 Nordeste 32 Nordeste 0 -- -- 66
2020-05-08 19:00:00 22.9 18 Nordeste 28 Nordeste 0 -- -- 62
2020-05-08 18:00:00 24.3 12 Sudeste 28 Sudeste 0 -- -- 59
2020-05-08 17:00:00 25.1 17 Sudeste 24 Sudeste 0 -- -- 57
2020-05-08 16:00:00 25.1 17 Nordeste 31 Norte 0 -- -- 54
2020-05-08 15:00:00 24.2 22 Norte 37 Nordeste 0 -- -- 56
2020-05-08 14:00:00 23.8 19 Nordeste 32 Nordeste 0 -- -- 55
2020-05-08 13:00:00 22.8 16 Nordeste 32 Nordeste 0 -- -- 59
2020-05-08 12:00:00 21.2 22 Nordeste 36 Norte 0 -- -- 61
2020-05-08 11:00:00 19.5 21 Nordeste 40 Norte 0 -- -- 65
2020-05-08 10:00:00 18.1 22 Nordeste 37 Norte 0 -- -- 69
2020-05-08 09:00:00 16.4 17 Norte 30 Norte 0 -- -- 79
2020-05-08 08:00:00 15.3 14 Norte 31 Norte 0 -- -- 81
2020-05-08 07:00:00 14.1 16 Norte 29 Nordeste 0 -- -- 88
2020-05-08 06:00:00 13.7 12 Noroeste 21 Norte 0 -- -- 89
2020-05-08 05:00:00 13.6 10 Norte 21 Norte 0 -- -- 90
2020-05-08 04:00:00 13.6 12 Noroeste 24 Norte 0 -- -- 90
2020-05-08 03:00:00 13.9 12 Noroeste 22 Noroeste 0 -- -- 90
2020-05-08 02:00:00 14.3 8 Norte 17 Norte 0 -- -- 85
2020-05-08 01:00:00 15.5 10 Norte 21 Norte 0 -- -- 82
2020-05-08 00:00:00 16 10 Norte 23 Nordeste 0 -- -- 80
2020-05-07 23:00:00 16.5 10 Norte 17 Norte 0 -- -- 68
2020-05-07 22:00:00 17.9 2 Norte 11 Oeste 0 -- -- 60
2020-05-07 21:00:00 19.3 2 Nordeste 24 Norte 0 -- -- 56
2020-05-07 20:00:00 20.3 14 Nordeste 35 Nordeste 0 -- -- 56
2020-05-07 19:00:00 22 18 Nordeste 35 Nordeste 0 -- -- 55
2020-05-07 18:00:00 24.5 11 Sudeste 33 Este 0 -- -- 42
2020-05-07 17:00:00 25.9 13 Este 22 Este 0 -- -- 39
2020-05-07 16:00:00 25.5 12 Sudeste 27 Sudeste 0 -- -- 40
2020-05-07 15:00:00 25.5 19 Sudeste 36 Sudeste 0 -- -- 37
2020-05-07 14:00:00 24.9 21 Sudeste 34 Sudeste 0 -- -- 39
2020-05-07 13:00:00 25 21 Sudeste 35 Este 0 -- -- 35
2020-05-07 12:00:00 24.3 18 Sudeste 31 Sudeste 0 -- -- 36
2020-05-07 11:00:00 23 7 Sudeste 22 Sudeste 0 -- -- 42
2020-05-07 10:00:00 19.1 3 Norte 10 Norte 0 -- -- 69
2020-05-07 09:00:00 16.1 6 Noroeste 12 Noroeste 0 -- -- 88
2020-05-07 08:00:00 11.3 0 Calma 3 Sur 0 -- -- 94
2020-05-07 07:00:00 11.2 6 Oeste 10 Sudoeste 0 -- -- 94
2020-05-07 06:00:00 10.8 2 Nordeste 4 Sudeste 0 -- -- 93
2020-05-07 05:00:00 11.3 0 Calma 6 Oeste 0 -- -- 93
2020-05-07 04:00:00 11.6 2 Norte 6 Oeste 0 -- -- 92
2020-05-07 03:00:00 12.1 2 Nordeste 5 Noroeste 0 -- -- 89
2020-05-07 02:00:00 12.8 0 Calma 8 Noroeste 0 -- -- 87
2020-05-07 01:00:00 13.6 5 Noroeste 10 Norte 0 -- -- 85
2020-05-07 00:00:00 14.3 4 Norte 7 Noroeste 0 -- -- 85
2020-05-06 23:00:00 16.1 0 Calma 6 Sudeste 0 -- -- 78
2020-05-06 22:00:00 19.2 4 Sudeste 13 Sur 0 -- -- 66
2020-05-06 21:00:00 20.8 4 Sur 12 Sudeste 0 -- -- 59
2020-05-06 20:00:00 22.6 9 Sudeste 19 Sur 0 -- -- 57
2020-05-06 19:00:00 24.2 12 Sudeste 19 Sudeste 0 -- -- 55
2020-05-06 18:00:00 26 13 Sur 23 Sur 0 -- -- 51
2020-05-06 17:00:00 26.7 12 Sur 23 Sur 0 -- -- 53
2020-05-06 16:00:00 27 15 Sur 23 Sur 0 -- -- 50
2020-05-06 15:00:00 27.5 12 Sudeste 23 Sudeste 0 -- -- 50
2020-05-06 14:00:00 26.6 15 Sudeste 28 Sudeste 0 -- -- 51
2020-05-06 13:00:00 28 4 Sur 10 Norte 0 -- -- 44
2020-05-06 12:00:00 25.8 6 Noroeste 16 Noroeste 0 -- -- 48
2020-05-06 11:00:00 22.6 9 Noroeste 15 Noroeste 0 -- -- 55
2020-05-06 10:00:00 20 9 Norte 14 Norte 0 -- -- 60
2020-05-06 09:00:00 16.9 5 Norte 13 Norte 0 -- -- 78
2020-05-06 08:00:00 13.2 8 Norte 14 Norte 0 -- -- 96
2020-05-06 07:00:00 9.9 0 Calma 6 Sudoeste 0 -- -- 94
2020-05-06 06:00:00 10.8 3 Oeste 6 Noroeste 0 -- -- 94
2020-05-06 05:00:00 10.8 4 Noroeste 5 Noroeste 0 -- -- 92
2020-05-06 04:00:00 11.7 2 Sudoeste 4 Oeste 0 -- -- 91
2020-05-06 03:00:00 12.5 4 Noroeste 6 Noroeste 0 -- -- 89
2020-05-06 02:00:00 13.6 5 Norte 7 Noroeste 0 -- -- 86
2020-05-06 01:00:00 15.7 6 Sudoeste 10 Sur 0 -- -- 77
2020-05-06 00:00:00 17.2 8 Sudeste 13 Sudeste 0 -- -- 75
2020-05-05 23:00:00 17.9 8 Sudeste 15 Este 0 -- -- 73
2020-05-05 22:00:00 19.4 12 Este 15 Sudeste 0 -- -- 66
2020-05-05 21:00:00 21.8 11 Sudeste 13 Este 0 -- -- 59
2020-05-05 20:00:00 24 8 Este 21 Este 0 -- -- 51
2020-05-05 19:00:00 26 13 Sudeste 22 Sudeste 0 -- -- 46
2020-05-05 18:00:00 27.3 15 Sudeste 23 Sudeste 0 -- -- 49
2020-05-05 17:00:00 28.9 13 Sudeste 26 Sudeste 0 -- -- 45
2020-05-05 16:00:00 29 15 Sudeste 28 Sudeste 0 -- -- 42
2020-05-05 15:00:00 29.8 12 Sudeste 19 Sudeste 0 -- -- 39
2020-05-05 14:00:00 29.8 5 Oeste 12 Norte 0 -- -- 36
2020-05-05 13:00:00 28 5 Sur 10 Norte 0 -- -- 38
2020-05-05 12:00:00 25.8 4 Norte 12 Norte 0 -- -- 43
2020-05-05 11:00:00 23.7 6 Norte 11 Norte 0 -- -- 49
2020-05-05 10:00:00 21.1 8 Norte 15 Norte 0 -- -- 56
2020-05-05 09:00:00 15.7 9 Norte 15 Norte 0 -- -- 73
2020-05-05 08:00:00 11.1 5 Norte 8 Noroeste 0 -- -- 90
2020-05-05 07:00:00 9.6 6 Noroeste 8 Noroeste 0 -- -- 89
2020-05-05 06:00:00 9.8 7 Noroeste 9 Noroeste 0 -- -- 89
2020-05-05 05:00:00 9.9 6 Sur 12 Oeste 0 -- -- 88
2020-05-05 04:00:00 9.5 4 Sudoeste 6 Noroeste 0 -- -- 90
2020-05-05 03:00:00 9.8 0 Calma 3 Sudoeste 0 -- -- 88
2020-05-05 02:00:00 11 2 Sudeste 8 Oeste 0 -- -- 84
2020-05-05 01:00:00 12.1 3 Sudeste 13 Noroeste 0 -- -- 80
2020-05-05 00:00:00 13.7 3 Noroeste 12 Noroeste 0 -- -- 71
2020-05-04 23:00:00 16.2 3 Sur 12 Este 0 -- -- 61
2020-05-04 22:00:00 17.2 9 Sudeste 17 Sudeste 0 -- -- 58
2020-05-04 21:00:00 21 9 Sudeste 21 Sudeste 0 -- -- 48
2020-05-04 20:00:00 24.2 13 Sur 29 Sudeste 0 -- -- 40
2020-05-04 19:00:00 25.1 19 Sudeste 34 Sur 0 -- -- 37
2020-05-04 18:00:00 26 23 Sur 39 Sur 0 -- -- 38
2020-05-04 17:00:00 27.6 30 Sur 44 Sudeste 0 -- -- 33
2020-05-04 16:00:00 28.5 23 Sur 35 Sur 0 -- -- 31
2020-05-04 15:00:00 28.6 23 Sur 39 Sur 0 -- -- 33
2020-05-04 14:00:00 28 27 Sur 44 Sur 0 -- -- 34
2020-05-04 13:00:00 27.1 27 Sur 39 Sudeste 0 -- -- 33
2020-05-04 12:00:00 26.4 23 Sur 35 Sudeste 0 -- -- 35
2020-05-04 11:00:00 23.9 10 Sudeste 23 Sudeste 0 -- -- 40
2020-05-04 10:00:00 18.2 0 Calma 6 Norte 0 -- -- 67
2020-05-04 09:00:00 13.7 3 Norte 6 Noroeste 0 -- -- 86
2020-05-04 08:00:00 9.2 0 Calma -- -- 0 -- -- 96
2020-05-04 07:00:00 7.3 0 Calma -- -- 0 -- -- 94
2020-05-04 06:00:00 7.7 0 Calma -- -- 0 -- -- 94
2020-05-04 05:00:00 8.5 0 Calma -- -- 0 -- -- 93
2020-05-04 04:00:00 8.7 0 Calma 4 Sudoeste 0 -- -- 91
2020-05-04 03:00:00 9.4 3 Oeste 5 Oeste 0 -- -- 90
2020-05-04 02:00:00 10.6 0 Calma 3 Noroeste 0 -- -- 88
2020-05-04 01:00:00 12.5 0 Calma 5 Sudeste 0 -- -- 82
2020-05-04 00:00:00 14.4 4 Sur 10 Sudeste 0 -- -- 78
2020-05-03 23:00:00 16.8 4 Sudeste 13 Sudeste 0 -- -- 71
2020-05-03 22:00:00 18.4 9 Sudeste 20 Sudeste 0 -- -- 65
2020-05-03 21:00:00 20.9 10 Sudeste 24 Sur 0 -- -- 58
2020-05-03 20:00:00 23.9 17 Sur 27 Sur 0 -- -- 49
2020-05-03 19:00:00 25.8 19 Sudeste 29 Sur 0 -- -- 42
2020-05-03 18:00:00 27.2 21 Sur 33 Sur 0 -- -- 36
2020-05-03 17:00:00 27.9 22 Sur 34 Sudeste 0 -- -- 39
2020-05-03 16:00:00 28 24 Sur 32 Sur 0 -- -- 38
2020-05-03 15:00:00 27.9 21 Sur 31 Sur 0 -- -- 40
2020-05-03 14:00:00 27.7 19 Sur 29 Sur 0 -- -- 41
2020-05-03 13:00:00 27.3 15 Sur 23 Sur 0 -- -- 39
2020-05-03 12:00:00 26.5 15 Sur 22 Sur 0 -- -- 46
2020-05-03 11:00:00 24.1 3 Sur 8 Noroeste 0 -- -- 51
2020-05-03 10:00:00 20 3 Oeste 8 Noroeste 0 -- -- 63
2020-05-03 09:00:00 15.4 3 Noroeste 6 Noroeste 0 -- -- 85
2020-05-03 08:00:00 10.4 0 Calma -- -- 0 -- -- 96
2020-05-03 07:00:00 9.4 0 Calma -- -- 0 -- -- 94
2020-05-03 06:00:00 9.8 0 Calma -- -- 0 -- -- 94
2020-05-03 05:00:00 10.3 0 Calma -- -- 0 -- -- 93
2020-05-03 04:00:00 11 0 Calma -- -- 0 -- -- 91
2020-05-03 03:00:00 12 0 Calma 8 Oeste 0 -- -- 90
2020-05-03 02:00:00 13.2 2 Norte 5 Norte 0 -- -- 88
2020-05-03 01:00:00 14.9 2 Nordeste 9 Sudeste 0 -- -- 84
2020-05-03 00:00:00 17.1 8 Sur 12 Sur 0 -- -- 79
2020-05-02 23:00:00 18 7 Sudeste 17 Sudeste 0 -- -- 76
2020-05-02 22:00:00 20 9 Sudeste 14 Sudeste 0 -- -- 70
2020-05-02 21:00:00 23.7 11 Sudeste 19 Sudeste 0 -- -- 55
2020-05-02 20:00:00 28.7 5 Norte 18 Noroeste 0 -- -- 38
2020-05-02 19:00:00 29.7 11 Noroeste 25 Noroeste 0 -- -- 33
2020-05-02 18:00:00 30.5 14 Noroeste 23 Oeste 0 -- -- 33
2020-05-02 17:00:00 30.6 13 Noroeste 27 Oeste 0 -- -- 33
2020-05-02 16:00:00 29.8 15 Oeste 29 Oeste 0 -- -- 36
2020-05-02 15:00:00 29.4 14 Noroeste 29 Oeste 0 -- -- 37
2020-05-02 14:00:00 27.8 15 Noroeste 26 Noroeste 0 -- -- 40
2020-05-02 13:00:00 26.1 11 Noroeste 30 Oeste 0 -- -- 45
2020-05-02 12:00:00 24.5 17 Noroeste 28 Oeste 0 -- -- 53
2020-05-02 11:00:00 22.4 12 Noroeste 23 Noroeste 0 -- -- 58
2020-05-02 10:00:00 21 14 Noroeste 23 Oeste 0 -- -- 65
2020-05-02 09:00:00 18.8 6 Noroeste 19 Oeste 0 -- -- 72
2020-05-02 08:00:00 15.2 5 Noroeste 17 Noroeste 0 -- -- 84
2020-05-02 07:00:00 15 10 Noroeste 22 Oeste 0 -- -- 82
2020-05-02 06:00:00 14.3 4 Norte 22 Noroeste 0 -- -- 81
2020-05-02 05:00:00 14.3 14 Noroeste 21 Oeste 0 -- -- 84
2020-05-02 04:00:00 15.5 5 Norte 16 Noroeste 0 -- -- 76
2020-05-02 03:00:00 17.2 13 Noroeste 24 Oeste 0 -- -- 70
2020-05-02 02:00:00 17.8 16 Noroeste 26 Oeste 0 -- -- 68
2020-05-02 01:00:00 17.2 13 Noroeste 19 Oeste 0 -- -- 70
2020-05-02 00:00:00 14.9 8 Oeste 14 Oeste 0 -- -- 79
2020-05-01 23:00:00 16.3 4 Oeste 10 Sudoeste 0 -- -- 73
2020-05-01 22:00:00 18.9 5 Noroeste 14 Noroeste 0 -- -- 63
2020-05-01 21:00:00 20.7 7 Norte 27 Noroeste 0 -- -- 57
2020-05-01 20:00:00 23.7 17 Noroeste 36 Noroeste 0 -- -- 48
2020-05-01 19:00:00 25.5 21 Noroeste 39 Noroeste 0 -- -- 46
2020-05-01 18:00:00 26.4 22 Noroeste 47 Oeste 0 -- -- 45
2020-05-01 17:00:00 26 27 Noroeste 45 Noroeste 0 -- -- 45
2020-05-01 16:00:00 27 23 Noroeste 40 Noroeste 0 -- -- 43
2020-05-01 15:00:00 26 22 Noroeste 46 Noroeste 0 -- -- 46
2020-05-01 14:00:00 24.6 24 Noroeste 45 Noroeste 0 -- -- 47
2020-05-01 13:00:00 23.5 22 Oeste 36 Oeste 0 -- -- 51
2020-05-01 12:00:00 21.6 19 Noroeste 41 Noroeste 0 -- -- 53
2020-05-01 11:00:00 19.9 21 Noroeste 33 Noroeste 0 -- -- 57
2020-05-01 10:00:00 18.1 14 Noroeste 28 Noroeste 0 -- -- 63
2020-05-01 09:00:00 15.5 10 Noroeste 19 Noroeste 0 -- -- 70
2020-05-01 08:00:00 14.1 13 Noroeste 24 Norte 0 -- -- 73
2020-05-01 07:00:00 12.9 6 Norte 24 Oeste 0 -- -- 75
2020-05-01 06:00:00 13 13 Noroeste 26 Noroeste 0 -- -- 75
2020-05-01 05:00:00 13 16 Noroeste 26 Noroeste 0 -- -- 74
2020-05-01 04:00:00 12.6 11 Noroeste 21 Noroeste 0 -- -- 74
2020-05-01 03:00:00 14.3 13 Noroeste 24 Noroeste 0 -- -- 67
2020-05-01 02:00:00 14.4 17 Noroeste 25 Oeste 0 -- -- 67
2020-05-01 01:00:00 14.9 17 Oeste 27 Noroeste 0 -- -- 65
2020-05-01 00:00:00 15.4 9 Noroeste 34 Noroeste 0 -- -- 64
2020-04-30 23:00:00 16.5 21 Noroeste 32 Noroeste 0 -- -- 60
2020-04-30 22:00:00 16.7 11 Noroeste 28 Noroeste 0 -- -- 59
2020-04-30 21:00:00 18.3 14 Noroeste 30 Noroeste 0 -- -- 53
2020-04-30 20:00:00 20 17 Noroeste 36 Noroeste 0 -- -- 48
2020-04-30 19:00:00 21.8 24 Noroeste 41 Oeste 0 -- -- 47
2020-04-30 18:00:00 23.5 22 Noroeste 40 Noroeste 0 -- -- 43
2020-04-30 17:00:00 23 21 Noroeste 38 Noroeste 0 -- -- 43
2020-04-30 16:00:00 23.3 18 Noroeste 37 Noroeste 0 -- -- 45
2020-04-30 15:00:00 22.2 22 Noroeste 42 Oeste 0 -- -- 44
2020-04-30 14:00:00 21.6 23 Noroeste 41 Noroeste 0 -- -- 50
2020-04-30 13:00:00 22.4 17 Oeste 35 Oeste 0 -- -- 50
2020-04-30 12:00:00 21.1 19 Oeste 33 Oeste 0 -- -- 51
2020-04-30 11:00:00 19.3 16 Oeste 31 Oeste 0 -- -- 56
2020-04-30 10:00:00 16.8 4 Sur 12 Sur 0 -- -- 65
2020-04-30 09:00:00 13.7 6 Noroeste 14 Noroeste 0 -- -- 81
2020-04-30 08:00:00 9 3 Noroeste 8 Noroeste 0 -- -- 95
2020-04-30 07:00:00 8 3 Nordeste 6 Nordeste 0 -- -- 93
2020-04-30 06:00:00 7.9 5 Este 11 Sudoeste 0 -- -- 92
2020-04-30 05:00:00 7.6 5 Noroeste 10 Norte 0 -- -- 92
2020-04-30 04:00:00 7.7 0 Calma 10 Oeste 0 -- -- 92
2020-04-30 03:00:00 8.7 0 Calma 13 Oeste 0 -- -- 89
2020-04-30 02:00:00 10.2 10 Oeste 14 Oeste 0 -- -- 88
2020-04-30 01:00:00 10.3 7 Oeste 9 Oeste 0 -- -- 86
2020-04-30 00:00:00 12.9 4 Sudeste 10 Sur 0 -- -- 79
2020-04-29 23:00:00 13.4 2 Sudeste 9 Sudoeste 0 -- -- 78
2020-04-29 22:00:00 15.1 6 Oeste 12 Oeste 0 -- -- 68
2020-04-29 21:00:00 17.9 9 Oeste 30 Noroeste 0 -- -- 52
2020-04-29 20:00:00 20.9 18 Noroeste 32 Noroeste 0 -- -- 40
2020-04-29 19:00:00 22.4 19 Noroeste 35 Noroeste 0 -- -- 40
2020-04-29 18:00:00 22.4 19 Noroeste 35 Noroeste 0 -- -- 41
2020-04-29 17:00:00 23.5 15 Noroeste 33 Noroeste 0 -- -- 40
2020-04-29 16:00:00 23 19 Noroeste 36 Noroeste 0 -- -- 39
2020-04-29 15:00:00 22.3 17 Oeste 32 Oeste 0 -- -- 45
2020-04-29 14:00:00 20.8 14 Noroeste 32 Oeste 0 -- -- 46
2020-04-29 13:00:00 19.5 18 Noroeste 31 Noroeste 0 -- -- 49
2020-04-29 12:00:00 18.6 15 Noroeste 27 Oeste 0 -- -- 53
2020-04-29 11:00:00 17 13 Noroeste 22 Noroeste 0 -- -- 62
2020-04-29 10:00:00 14.6 3 Norte 7 Norte 0 -- -- 67
2020-04-29 09:00:00 11.5 0 Calma 4 Nordeste 0 -- -- 77
2020-04-29 08:00:00 6.6 0 Calma 13 Oeste 0 -- -- 94
2020-04-29 07:00:00 5.6 2 Oeste 10 Este 0 -- -- 89
2020-04-29 06:00:00 6.1 3 Este 6 Este 0 -- -- 89
2020-04-29 05:00:00 6.8 2 Este 6 Norte 0 -- -- 86
2020-04-29 04:00:00 7.1 6 Noroeste 12 Norte 0 -- -- 86
2020-04-29 03:00:00 8.4 6 Norte 13 Noroeste 0 -- -- 79
2020-04-29 02:00:00 7.4 3 Norte 15 Oeste 0 -- -- 87
2020-04-29 01:00:00 8 4 Noroeste 9 Noroeste 0 -- -- 86
2020-04-29 00:00:00 9.2 3 Oeste 10 Noroeste 0 -- -- 84
2020-04-28 23:00:00 10.5 0 Calma 4 Norte 0 -- -- 81
2020-04-28 22:00:00 13.1 4 Noroeste 21 Noroeste 0 -- -- 70
2020-04-28 21:00:00 15.4 10 Noroeste 24 Noroeste 0 -- -- 62
2020-04-28 20:00:00 18.6 15 Noroeste 27 Oeste 0 -- -- 51
2020-04-28 19:00:00 20.4 17 Noroeste 29 Noroeste 0 -- -- 48
2020-04-28 18:00:00 19.8 14 Noroeste 26 Oeste 0 -- -- 48
2020-04-28 17:00:00 19.2 10 Noroeste 22 Oeste 0 -- -- 52
2020-04-28 16:00:00 20 14 Oeste 24 Noroeste 0 -- -- 50
2020-04-28 15:00:00 19.1 12 Noroeste 29 Oeste 0 -- -- 50
2020-04-28 14:00:00 18.6 17 Oeste 28 Oeste 0 -- -- 53
2020-04-28 13:00:00 17.6 14 Oeste 24 Oeste 0 -- -- 59
2020-04-28 12:00:00 17.2 16 Oeste 28 Oeste 0 -- -- 61
2020-04-28 11:00:00 15.4 11 Oeste 24 Oeste 0 -- -- 71
2020-04-28 10:00:00 13.4 4 Noroeste 8 Oeste 0 -- -- 82
2020-04-28 09:00:00 10.4 0 Calma 5 Oeste 0 -- -- 95
2020-04-28 08:00:00 7.7 2 Sudoeste 7 Sudoeste 0 -- -- 96
2020-04-28 07:00:00 7 0 Calma 11 Norte 0 -- -- 94
2020-04-28 06:00:00 7.2 9 Norte 13 Norte 0 -- -- 93
2020-04-28 05:00:00 7.3 9 Noroeste 13 Noroeste 0 -- -- 94
2020-04-28 04:00:00 7 11 Noroeste 14 Noroeste 0 -- -- 94
2020-04-28 03:00:00 7.3 6 Noroeste 8 Oeste 0 -- -- 93
2020-04-28 02:00:00 8.6 4 Nordeste 14 Noroeste 0 -- -- 92
2020-04-28 01:00:00 8.4 8 Noroeste 17 Noroeste 0 -- -- 92
2020-04-28 00:00:00 9.5 8 Noroeste 16 Noroeste 0 -- -- 89